Brea, CA (92823)

11:54 AM PDT on August 30, 2016 (GMT -0700)
Kerrigan Ranch | | Change Station

Elev 699 ft 33.90 °N, 117.79 °W | Updated 4 minutes ago

Partly Cloudy
Partly Cloudy
86.5 °F
Feels Like 89 °F
N
2.7
Wind Variable Wind from SW

Today
High -- | Low -- °F
--% Chance of Precip.
Yesterday
High -- | Low -- °F
Precip. -- in
Pressure 29.86 in
Visibility 10.0 miles
Clouds Few 15000 ft
Heat Index 89 °F
Dew Point 66 °F
Humidity 51%
Rainfall 0.00 in
Snow Depth Not available.
6:23 AM 7:18 PM
Waning Crescent, 3% visible
METAR KCNO 301753Z 28003KT 10SM FEW150 31/15 A2988 RMK AO2 SLP112 T03060150 10306 20183 58005
Pressure 29.86 in
Visibility 10.0 miles
Clouds Few 15000 ft
Heat Index 89 °F
Dew Point 66 °F
Humidity 51%
Rainfall 0.00 in
Snow Depth Not available.
6:23 AM 7:18 PM
Waning Crescent, 3% visible
METAR KCNO 301753Z 28003KT 10SM FEW150 31/15 A2988 RMK AO2 SLP112 T03060150 10306 20183 58005

10-Day Weather Forecast

Almanac

Astronomy

Aug. 30, 2016 Rise Set
Actual Time
Civil Twilight
Nautical Twilight
Astronomical Twilight
Moon
Length of Visible Light
Length of Day
Tomorrow will be .
, % of the Moon is Illuminated

Today's Extremes

State Highs State Lows

Community

WunderPhotos

Upload Photos

1,935,875 photos uploaded!

WunderBlog® & News

Nearby

Air Quality

  Air Quality AQ Index Pollutant
Not available.

Snow Depth

Station Depth Elevation

Earthquake Activity

City Distance Mag. Time & Date
Minimum magnitude displayed is 2.5.

Coastal Water Temperatures

Place Temperature

Stations

Nearby Weather Stations

Station Location Temp. Windchill Dew Point Humidity Wind Precip. Elev Updated Type
                   

Watches & Warnings

There are currently no watches in effect.